createdAt,value
2022-08-22T00:02:26.335Z,20.50
2022-08-22T00:02:54.357Z,22.50
2022-08-22T00:03:10.730Z,21.40
2022-08-22T00:05:07.201Z,20.30
2022-08-22T00:07:46.247Z,20.20
2022-08-22T00:10:25.637Z,19.90
2022-08-22T00:13:02.768Z,19.50
2022-08-22T00:15:43.048Z,19.50
2022-08-22T00:18:16.975Z,19.70
2022-08-22T00:20:54.154Z,19.80
2022-08-22T00:23:28.688Z,19.90
2022-08-22T00:26:05.258Z,19.50
2022-08-22T00:28:39.700Z,19.50
2022-08-22T00:31:16.137Z,19.70
2022-08-22T00:33:49.900Z,19.90
2022-08-22T00:36:25.455Z,20.00
2022-08-22T00:38:58.812Z,20.00
2022-08-22T00:41:37.964Z,20.00
2022-08-22T00:44:32.042Z,19.80
2022-08-22T00:47:19.866Z,19.80
2022-08-22T00:50:08.812Z,19.80
2022-08-22T00:53:09.409Z,19.80
2022-08-22T00:55:54.628Z,19.70
2022-08-22T00:58:54.929Z,19.60
2022-08-22T01:01:33.656Z,19.70
2022-08-22T01:04:23.837Z,19.70
2022-08-22T01:07:04.688Z,19.70
2022-08-22T01:09:47.006Z,19.80
2022-08-22T01:12:46.297Z,19.80
2022-08-22T01:15:20.814Z,19.80
2022-08-22T01:18:01.149Z,19.80
2022-08-22T01:21:10.635Z,19.60
2022-08-22T01:24:06.822Z,19.00
2022-08-22T01:27:13.930Z,18.90
2022-08-22T01:30:19.592Z,19.00
2022-08-22T01:33:20.312Z,19.00
2022-08-22T01:36:19.706Z,18.60
2022-08-22T01:39:05.134Z,18.50
2022-08-22T01:41:57.611Z,18.60
2022-08-22T01:44:40.978Z,18.80
2022-08-22T01:47:14.343Z,18.80
2022-08-22T01:49:47.326Z,18.90
2022-08-22T01:52:21.760Z,19.00
2022-08-22T01:54:55.206Z,19.10
2022-08-22T01:57:25.014Z,19.10
2022-08-22T01:59:56.247Z,19.30
2022-08-22T02:02:53.361Z,19.30
2022-08-22T02:05:31.069Z,19.20
2022-08-22T02:08:04.930Z,19.30
2022-08-22T02:10:51.785Z,19.30
2022-08-22T02:13:34.513Z,19.00
2022-08-22T02:16:10.362Z,19.10
2022-08-22T02:18:55.309Z,19.10
2022-08-22T02:21:30.520Z,19.10
2022-08-22T02:24:04.165Z,19.10
2022-08-22T02:26:46.638Z,18.90
2022-08-22T02:29:20.334Z,18.90
2022-08-22T02:31:57.612Z,18.90
2022-08-22T02:34:37.192Z,19.00
2022-08-22T02:37:11.580Z,19.00
2022-08-22T02:39:47.430Z,19.10
2022-08-22T02:42:29.607Z,19.10
2022-08-22T02:45:16.574Z,19.00
2022-08-22T02:47:56.966Z,18.90
2022-08-22T02:50:35.685Z,18.80
2022-08-22T02:53:10.099Z,18.80
2022-08-22T02:55:55.874Z,18.70
2022-08-22T02:58:33.972Z,18.70
2022-08-22T03:01:38.251Z,18.70
2022-08-22T03:04:24.420Z,18.70
2022-08-22T03:07:13.896Z,18.80
2022-08-22T03:09:49.989Z,18.70
2022-08-22T03:12:28.635Z,18.70
2022-08-22T03:15:03.522Z,18.70
2022-08-22T03:17:36.141Z,18.80
2022-08-22T03:20:09.372Z,18.70
2022-08-22T03:22:45.683Z,18.70
2022-08-22T03:25:23.548Z,18.70
2022-08-22T03:28:00.160Z,18.60
2022-08-22T03:30:35.162Z,18.60
2022-08-22T03:33:17.135Z,18.50
2022-08-22T03:36:01.352Z,18.50
2022-08-22T03:38:41.041Z,18.60
2022-08-22T03:41:40.132Z,18.60
2022-08-22T03:44:42.670Z,18.20
2022-08-22T03:47:47.843Z,18.00
2022-08-22T03:50:39.024Z,17.90
2022-08-22T03:53:42.465Z,17.70
2022-08-22T03:56:34.960Z,17.70
2022-08-22T03:59:28.427Z,17.60
2022-08-22T04:02:42.337Z,17.80
2022-08-22T04:05:40.614Z,18.00
2022-08-22T04:08:26.562Z,18.10
2022-08-22T04:11:53.059Z,18.20
2022-08-22T04:14:56.377Z,18.00
2022-08-22T04:17:45.157Z,17.80
2022-08-22T04:20:43.429Z,17.70
2022-08-22T04:23:41.045Z,17.60
2022-08-22T04:26:13.029Z,17.60
2022-08-22T04:28:46.515Z,17.10
2022-08-22T04:31:23.508Z,16.80
2022-08-22T04:33:55.170Z,17.00
2022-08-22T04:36:28.796Z,17.00
2022-08-22T04:39:03.709Z,16.80
2022-08-22T04:41:39.553Z,16.40
2022-08-22T04:44:13.454Z,16.20
2022-08-22T04:46:47.477Z,16.20
2022-08-22T04:49:22.699Z,16.20
2022-08-22T04:51:56.961Z,16.40
2022-08-22T04:54:38.875Z,16.60
2022-08-22T04:57:22.245Z,16.80
2022-08-22T04:59:51.625Z,17.00
2022-08-22T05:02:23.962Z,17.10
2022-08-22T05:04:59.176Z,17.10
2022-08-22T05:07:36.017Z,17.10
2022-08-22T05:10:11.968Z,17.30
2022-08-22T05:12:44.574Z,17.50
2022-08-22T05:15:23.069Z,17.60
2022-08-22T05:17:53.530Z,17.40
2022-08-22T05:20:25.408Z,17.20
2022-08-22T05:23:01.238Z,17.10
2022-08-22T05:25:33.233Z,17.10
2022-08-22T05:28:12.189Z,17.20
2022-08-22T05:30:41.635Z,17.40
2022-08-22T05:33:19.443Z,17.60
2022-08-22T05:35:55.795Z,17.70
2022-08-22T05:38:31.109Z,17.80
2022-08-22T05:41:04.956Z,17.80
2022-08-22T05:43:37.784Z,17.80
2022-08-22T05:46:09.912Z,17.70
2022-08-22T05:48:43.620Z,17.50
2022-08-22T05:51:19.069Z,17.20
2022-08-22T05:53:53.189Z,17.30
2022-08-22T05:56:27.516Z,17.30
2022-08-22T05:59:01.681Z,17.20
2022-08-22T06:01:34.139Z,17.20
2022-08-22T06:04:09.302Z,17.40
2022-08-22T06:06:43.180Z,17.50
2022-08-22T06:09:20.989Z,17.60
2022-08-22T06:11:54.623Z,17.50
2022-08-22T06:14:33.825Z,17.50
2022-08-22T06:17:07.741Z,17.30
2022-08-22T06:19:40.709Z,17.20
2022-08-22T06:22:09.437Z,17.30
2022-08-22T06:24:41.821Z,17.30
2022-08-22T06:27:13.330Z,17.40
2022-08-22T06:29:44.259Z,17.50
2022-08-22T06:32:44.349Z,17.70
2022-08-22T06:35:14.593Z,17.70
2022-08-22T06:37:46.978Z,17.60
2022-08-22T06:40:18.953Z,17.60
2022-08-22T06:42:50.125Z,17.50
2022-08-22T06:45:23.140Z,17.50
2022-08-22T06:47:56.329Z,17.50
2022-08-22T06:50:33.402Z,17.40
2022-08-22T06:53:06.944Z,17.50
2022-08-22T06:55:39.970Z,17.70
2022-08-22T06:58:15.694Z,17.80
2022-08-22T07:00:51.081Z,18.00
2022-08-22T07:03:37.629Z,18.10
2022-08-22T07:06:06.601Z,18.30
2022-08-22T07:08:39.069Z,18.40
2022-08-22T07:11:15.345Z,18.50
2022-08-22T07:13:50.494Z,18.60
2022-08-22T07:16:30.285Z,18.70
2022-08-22T07:18:58.960Z,18.80
2022-08-22T07:21:29.910Z,18.90
2022-08-22T07:24:02.063Z,19.00
2022-08-22T07:26:38.249Z,19.10
2022-08-22T07:29:11.457Z,19.20
2022-08-22T07:31:45.094Z,19.30
2022-08-22T07:34:31.275Z,19.40
2022-08-22T07:37:03.567Z,19.40
2022-08-22T07:39:38.227Z,19.50
2022-08-22T07:42:13.889Z,19.70
2022-08-22T07:45:03.429Z,19.80
2022-08-22T07:47:49.233Z,19.80
2022-08-22T07:50:24.042Z,19.90
2022-08-22T07:52:54.460Z,20.00
2022-08-22T07:55:25.264Z,20.10
2022-08-22T07:57:57.822Z,20.20
2022-08-22T08:00:27.159Z,20.30
2022-08-22T08:02:58.710Z,20.40
2022-08-22T08:05:29.256Z,20.50
2022-08-22T08:07:58.260Z,20.50
2022-08-22T08:10:31.447Z,20.60
2022-08-22T08:13:06.047Z,20.70
2022-08-22T08:15:37.043Z,20.70
2022-08-22T08:18:07.575Z,20.80
2022-08-22T08:20:37.423Z,20.90
2022-08-22T08:23:10.197Z,21.00
2022-08-22T08:25:53.389Z,21.10
2022-08-22T08:28:35.135Z,21.10
2022-08-22T08:31:20.914Z,21.20
2022-08-22T08:33:51.512Z,21.30
2022-08-22T08:36:33.872Z,21.30
2022-08-22T08:39:14.152Z,21.40
2022-08-22T08:42:23.420Z,21.50
2022-08-22T08:45:20.791Z,21.60
2022-08-22T08:48:07.224Z,21.70
2022-08-22T08:50:57.724Z,21.80
2022-08-22T08:54:03.771Z,21.90
2022-08-22T08:56:39.469Z,22.00
2022-08-22T08:59:27.030Z,22.10
2022-08-22T09:02:34.979Z,22.10
2022-08-22T09:05:27.334Z,22.20
2022-08-22T09:08:37.166Z,22.30
2022-08-22T09:11:57.478Z,22.40
2022-08-22T09:14:51.997Z,22.50
2022-08-22T09:17:43.708Z,22.50
2022-08-22T09:20:27.070Z,22.60
2022-08-22T09:23:28.869Z,22.70
2022-08-22T09:26:02.284Z,22.80
2022-08-22T09:28:46.257Z,22.90
2022-08-22T09:31:47.384Z,22.90
2022-08-22T09:34:30.146Z,23.00
2022-08-22T09:37:16.285Z,23.10
2022-08-22T09:40:15.731Z,23.40
2022-08-22T09:42:55.275Z,23.50
2022-08-22T09:45:47.275Z,23.50
2022-08-22T09:48:39.759Z,23.60
2022-08-22T09:51:31.739Z,23.70
2022-08-22T09:54:15.792Z,23.90
2022-08-22T09:57:15.113Z,24.10
2022-08-22T10:00:09.545Z,24.20
2022-08-22T10:02:44.932Z,24.50
2022-08-22T10:05:41.230Z,24.70
2022-08-22T10:08:23.515Z,24.80
2022-08-22T10:11:15.915Z,24.80
2022-08-22T10:14:00.465Z,25.00
2022-08-22T10:16:53.420Z,25.10
2022-08-22T10:19:27.927Z,25.20
2022-08-22T10:22:20.377Z,25.10
2022-08-22T10:25:05.892Z,25.20
2022-08-22T10:27:45.015Z,25.20
2022-08-22T10:30:18.337Z,25.40
2022-08-22T10:32:52.605Z,25.30
2022-08-22T10:35:33.926Z,25.40
2022-08-22T10:38:07.221Z,25.50
2022-08-22T10:40:48.388Z,25.50
2022-08-22T10:43:29.169Z,25.50
2022-08-22T10:46:06.740Z,25.60
2022-08-22T10:48:43.842Z,25.70
2022-08-22T10:51:21.052Z,25.60
2022-08-22T10:54:01.374Z,25.70
2022-08-22T10:56:43.812Z,25.80
2022-08-22T10:59:29.494Z,25.80
2022-08-22T11:02:14.809Z,25.80
2022-08-22T11:05:15.263Z,25.90
2022-08-22T11:07:48.721Z,26.00
2022-08-22T11:10:27.957Z,26.10
2022-08-22T11:13:12.135Z,26.00
2022-08-22T11:15:59.787Z,25.90
2022-08-22T11:18:39.692Z,26.00
2022-08-22T11:21:15.235Z,26.20
2022-08-22T11:23:51.809Z,26.30
2022-08-22T11:26:41.680Z,26.40
2022-08-22T11:29:43.445Z,26.30
2022-08-22T11:32:17.769Z,26.50
2022-08-22T11:35:00.165Z,26.50
2022-08-22T11:37:49.194Z,26.50
2022-08-22T11:40:37.263Z,26.70
2022-08-22T11:43:18.408Z,26.80
2022-08-22T11:45:50.776Z,26.90
2022-08-22T11:48:24.971Z,26.90
2022-08-22T11:51:03.500Z,26.80
2022-08-22T11:53:46.009Z,26.80
2022-08-22T11:56:22.742Z,26.80
2022-08-22T11:58:57.621Z,27.10
2022-08-22T12:01:36.804Z,27.00
2022-08-22T12:04:13.094Z,27.10
2022-08-22T12:06:59.997Z,27.10
2022-08-22T12:09:51.985Z,27.10
2022-08-22T12:12:42.177Z,27.20
2022-08-22T12:15:18.172Z,27.30
2022-08-22T12:18:08.697Z,27.20
2022-08-22T12:20:58.125Z,27.30
2022-08-22T12:24:19.195Z,27.30
2022-08-22T12:27:18.403Z,27.40
2022-08-22T12:30:23.389Z,27.40
2022-08-22T12:33:27.129Z,27.40
2022-08-22T12:36:18.795Z,27.60
2022-08-22T12:39:11.325Z,27.60
2022-08-22T12:42:06.881Z,27.60
2022-08-22T12:44:49.712Z,27.50
2022-08-22T12:47:34.406Z,27.60
2022-08-22T12:50:20.494Z,27.70
2022-08-22T12:53:07.056Z,27.70
2022-08-22T12:55:52.441Z,27.90
2022-08-22T12:58:33.744Z,28.00
2022-08-22T13:01:07.512Z,28.00
2022-08-22T13:03:41.697Z,28.00
2022-08-22T13:06:55.071Z,28.10
2022-08-22T13:09:30.746Z,28.10
2022-08-22T13:12:04.730Z,28.00
2022-08-22T13:14:35.161Z,28.10
2022-08-22T13:17:25.397Z,28.10
2022-08-22T13:20:04.510Z,28.10
2022-08-22T13:22:35.129Z,28.00
2022-08-22T13:25:08.587Z,28.00
2022-08-22T13:27:51.351Z,28.10
2022-08-22T13:30:22.365Z,28.10
2022-08-22T13:32:52.678Z,28.20
2022-08-22T13:35:25.612Z,28.20
2022-08-22T13:37:56.870Z,28.10
2022-08-22T13:40:30.658Z,28.10
2022-08-22T13:43:06.484Z,28.20
2022-08-22T13:45:37.178Z,28.30
2022-08-22T13:48:11.607Z,28.30
2022-08-22T13:50:56.984Z,28.40
2022-08-22T13:53:33.710Z,28.40
2022-08-22T13:56:15.603Z,28.40
2022-08-22T13:58:47.344Z,28.50
2022-08-22T14:01:38.834Z,28.50
2022-08-22T14:04:26.678Z,28.60
2022-08-22T14:07:24.201Z,28.50
2022-08-22T14:09:57.487Z,28.50
2022-08-22T14:12:50.120Z,28.60
2022-08-22T14:15:24.630Z,28.60
2022-08-22T14:17:59.781Z,28.60
2022-08-22T14:20:33.731Z,28.60
2022-08-22T14:23:07.509Z,28.70
2022-08-22T14:25:38.012Z,28.70
2022-08-22T14:28:14.188Z,28.80
2022-08-22T14:30:59.437Z,28.80
2022-08-22T14:33:35.044Z,28.80
2022-08-22T14:36:12.528Z,29.00
2022-08-22T14:38:46.502Z,29.40
2022-08-22T14:41:25.813Z,30.00
2022-08-22T14:44:01.448Z,30.50
2022-08-22T14:46:35.142Z,31.00
2022-08-22T14:49:29.475Z,31.60
2022-08-22T14:52:03.461Z,32.10
2022-08-22T14:54:32.823Z,32.40
2022-08-22T14:57:04.772Z,32.70
2022-08-22T14:59:50.250Z,33.10
2022-08-22T15:02:26.255Z,33.60
2022-08-22T15:04:56.253Z,33.60
2022-08-22T15:07:27.200Z,33.80
2022-08-22T15:10:01.127Z,34.10
2022-08-22T15:12:34.150Z,34.30
2022-08-22T15:15:07.475Z,34.30
2022-08-22T15:17:43.993Z,34.30
2022-08-22T15:20:28.488Z,34.10
2022-08-22T15:23:01.787Z,33.90
2022-08-22T15:25:34.418Z,34.00
2022-08-22T15:28:13.046Z,34.10
2022-08-22T15:30:48.219Z,33.80
2022-08-22T15:33:25.395Z,33.40
2022-08-22T15:35:56.624Z,33.00
2022-08-22T15:38:28.786Z,32.60
2022-08-22T15:40:57.894Z,31.90
2022-08-22T15:43:33.760Z,31.10
2022-08-22T15:46:24.882Z,30.60
2022-08-22T15:49:01.144Z,30.00
2022-08-22T15:51:38.534Z,29.50
2022-08-22T15:54:16.288Z,29.20
2022-08-22T15:57:16.594Z,29.00
2022-08-22T15:59:55.555Z,28.80
2022-08-22T16:02:35.257Z,28.80
2022-08-22T16:05:23.895Z,28.60
2022-08-22T16:08:03.778Z,28.40
2022-08-22T16:10:35.995Z,28.30
2022-08-22T16:13:37.984Z,28.20
2022-08-22T16:16:09.535Z,28.10
2022-08-22T16:19:21.509Z,28.00
2022-08-22T16:22:16.518Z,27.90
2022-08-22T16:25:11.374Z,27.80
2022-08-22T16:27:57.366Z,27.70
2022-08-22T16:30:38.849Z,27.60
2022-08-22T16:33:08.833Z,27.50
2022-08-22T16:36:22.373Z,27.50
2022-08-22T16:38:54.030Z,27.40
2022-08-22T16:41:29.972Z,27.30
2022-08-22T16:44:43.909Z,27.30
2022-08-22T16:47:15.914Z,27.20
2022-08-22T16:50:09.613Z,27.10
2022-08-22T16:52:57.642Z,27.00
2022-08-22T16:56:09.586Z,27.00
2022-08-22T16:59:27.565Z,26.90
2022-08-22T17:02:33.336Z,26.90
2022-08-22T17:05:18.614Z,26.90
2022-08-22T17:08:01.477Z,26.80
2022-08-22T17:10:43.285Z,26.80
2022-08-22T17:13:26.539Z,26.80
2022-08-22T17:16:07.701Z,26.80
2022-08-22T17:18:48.501Z,26.80
2022-08-22T17:21:25.855Z,26.70
2022-08-22T17:24:08.185Z,26.70
2022-08-22T17:26:55.789Z,26.60
2022-08-22T17:29:32.931Z,26.50
2022-08-22T17:32:08.818Z,26.40
2022-08-22T17:34:40.447Z,26.30
2022-08-22T17:37:12.410Z,26.20
2022-08-22T17:40:10.901Z,26.20
2022-08-22T17:42:52.587Z,26.10
2022-08-22T17:45:31.401Z,26.10
2022-08-22T17:48:07.882Z,26.10
2022-08-22T17:50:41.541Z,26.00
2022-08-22T17:53:16.253Z,26.00
2022-08-22T17:55:59.160Z,25.80
2022-08-22T17:58:43.442Z,25.80
2022-08-22T18:01:20.569Z,25.80
2022-08-22T18:04:00.572Z,25.80
2022-08-22T18:06:34.232Z,25.70
2022-08-22T18:09:14.136Z,25.50
2022-08-22T18:11:47.312Z,25.50
2022-08-22T18:14:26.839Z,25.50
2022-08-22T18:16:59.210Z,25.40
2022-08-22T18:19:40.696Z,25.30
2022-08-22T18:22:13.142Z,25.30
2022-08-22T18:24:49.495Z,25.20
2022-08-22T18:27:34.077Z,25.20
2022-08-22T18:30:15.142Z,25.20
2022-08-22T18:32:56.525Z,25.10
2022-08-22T18:35:32.497Z,25.00
2022-08-22T18:38:19.182Z,24.90
2022-08-22T18:40:53.525Z,24.90
2022-08-22T18:43:30.207Z,24.80
2022-08-22T18:46:04.174Z,24.80
2022-08-22T18:48:59.413Z,24.70
2022-08-22T18:51:34.993Z,24.70
2022-08-22T18:54:35.325Z,24.60
2022-08-22T18:57:11.197Z,24.60
2022-08-22T19:00:02.314Z,24.50
2022-08-22T19:03:09.364Z,24.50
2022-08-22T19:06:02.580Z,24.40
2022-08-22T19:09:03.116Z,24.40
2022-08-22T19:11:46.443Z,24.30
2022-08-22T19:14:48.589Z,24.20
2022-08-22T19:17:58.822Z,24.20
2022-08-22T19:20:48.904Z,24.10
2022-08-22T19:23:48.616Z,24.10
2022-08-22T19:26:39.195Z,23.90
2022-08-22T19:29:32.319Z,23.70
2022-08-22T19:32:02.059Z,23.30
2022-08-22T19:34:36.430Z,23.00
2022-08-22T19:37:32.101Z,23.20
2022-08-22T19:40:05.620Z,23.10
2022-08-22T19:42:39.825Z,23.10
2022-08-22T19:45:19.651Z,23.00
2022-08-22T19:48:00.332Z,22.90
2022-08-22T19:50:36.034Z,22.90
2022-08-22T19:53:25.357Z,22.90
2022-08-22T19:56:11.365Z,22.90
2022-08-22T19:58:52.342Z,22.50
2022-08-22T20:01:47.011Z,22.30
2022-08-22T20:04:43.572Z,22.30
2022-08-22T20:07:22.778Z,22.50
2022-08-22T20:10:05.321Z,22.60
2022-08-22T20:12:46.931Z,22.80
2022-08-22T20:15:20.852Z,22.90
2022-08-22T20:20:54.908Z,22.00
2022-08-22T20:23:28.346Z,21.90
2022-08-22T20:25:57.493Z,22.10
2022-08-22T20:28:39.124Z,22.20
2022-08-22T20:31:12.785Z,22.30
2022-08-22T20:33:43.855Z,22.20
2022-08-22T20:36:28.544Z,22.10
2022-08-22T20:39:01.561Z,22.10
2022-08-22T20:41:35.591Z,21.90
2022-08-22T20:44:12.550Z,22.00
2022-08-22T20:46:53.164Z,22.20
2022-08-22T20:49:26.554Z,22.30
2022-08-22T20:51:57.579Z,22.40
2022-08-22T20:54:28.236Z,22.40
2022-08-22T20:56:58.373Z,22.30
2022-08-22T20:59:32.404Z,22.30
2022-08-22T21:02:09.413Z,22.20
2022-08-22T21:04:44.117Z,22.10
2022-08-22T21:07:12.315Z,22.10
2022-08-22T21:09:57.771Z,22.10
2022-08-22T21:12:26.451Z,22.00
2022-08-22T21:14:55.976Z,22.00
2022-08-22T21:17:29.147Z,21.90
2022-08-22T21:20:21.153Z,21.90
2022-08-22T21:22:49.680Z,21.80
2022-08-22T21:25:17.912Z,21.80
2022-08-22T21:27:49.172Z,21.80
2022-08-22T21:30:25.856Z,21.80
2022-08-22T21:32:56.227Z,21.70
2022-08-22T21:35:29.590Z,21.70
2022-08-22T21:37:59.095Z,21.70
2022-08-22T21:40:33.702Z,21.60
2022-08-22T21:43:08.228Z,21.50
2022-08-22T21:45:44.358Z,21.50
2022-08-22T21:48:32.371Z,21.40
2022-08-22T21:51:21.910Z,21.50
2022-08-22T21:53:56.095Z,21.40
2022-08-22T21:56:38.589Z,21.30
2022-08-22T21:59:25.491Z,21.20
2022-08-22T22:01:55.692Z,21.20
2022-08-22T22:04:23.956Z,21.20
2022-08-22T22:06:52.002Z,21.20
2022-08-22T22:09:20.133Z,21.10
2022-08-22T22:11:48.317Z,21.00
2022-08-22T22:14:16.389Z,21.00
2022-08-22T22:16:46.477Z,21.00
2022-08-22T22:19:15.961Z,20.90
2022-08-22T22:21:44.418Z,20.90
2022-08-22T22:24:12.470Z,21.00
2022-08-22T22:26:40.557Z,21.00
2022-08-22T22:29:10.762Z,21.00
2022-08-22T22:31:38.937Z,20.90
2022-08-22T22:34:06.966Z,20.90
2022-08-22T22:36:36.717Z,20.90
2022-08-22T22:39:06.188Z,20.90
2022-08-22T22:41:34.253Z,20.90
2022-08-22T22:44:02.991Z,20.90
2022-08-22T22:46:31.384Z,20.80
2022-08-22T22:48:59.896Z,20.30
2022-08-22T22:51:27.962Z,20.20
2022-08-22T22:53:58.454Z,20.30
2022-08-22T22:56:26.720Z,20.40
2022-08-22T22:58:59.191Z,20.50
2022-08-22T23:01:59.992Z,20.60
2022-08-22T23:04:28.215Z,20.50
2022-08-22T23:06:56.309Z,20.50
2022-08-22T23:09:38.635Z,20.30
2022-08-22T23:12:12.943Z,20.20
2022-08-22T23:14:41.144Z,20.30
2022-08-22T23:17:09.577Z,20.30
2022-08-22T23:19:38.877Z,20.40
2022-08-22T23:22:08.755Z,20.10
2022-08-22T23:24:39.814Z,20.00
2022-08-22T23:27:08.902Z,20.00
2022-08-22T23:29:38.373Z,19.90
2022-08-22T23:32:06.671Z,19.90
2022-08-22T23:34:36.688Z,20.00
2022-08-22T23:37:07.817Z,20.00
2022-08-22T23:39:39.285Z,19.60
2022-08-22T23:42:09.854Z,19.50
2022-08-22T23:44:40.916Z,19.50
2022-08-22T23:47:13.306Z,19.60
2022-08-22T23:49:42.136Z,19.70
2022-08-22T23:52:12.136Z,19.80
2022-08-22T23:54:42.116Z,19.80
2022-08-22T23:57:12.160Z,19.80
2022-08-22T23:59:46.333Z,19.80
